sensor_id;sensor_type;location;lat;lon;timestamp;P1;durP1;ratioP1;P2;durP2;ratioP2
72156;SDS011;60035;52.122;5.406;2023-08-12T00:00:54;10.00;;;3.60;;
72156;SDS011;60035;52.122;5.406;2023-08-12T00:03:20;8.07;;;3.10;;
72156;SDS011;60035;52.122;5.406;2023-08-12T00:05:48;13.75;;;3.85;;
72156;SDS011;60035;52.122;5.406;2023-08-12T00:08:15;8.88;;;3.53;;
72156;SDS011;60035;52.122;5.406;2023-08-12T00:10:41;9.75;;;3.85;;
72156;SDS011;60035;52.122;5.406;2023-08-12T00:13:08;12.27;;;4.03;;
72156;SDS011;60035;52.122;5.406;2023-08-12T00:15:34;10.68;;;4.18;;
72156;SDS011;60035;52.122;5.406;2023-08-12T00:18:01;11.88;;;3.95;;
72156;SDS011;60035;52.122;5.406;2023-08-12T00:20:30;11.30;;;4.45;;
72156;SDS011;60035;52.122;5.406;2023-08-12T00:22:57;11.68;;;4.55;;
72156;SDS011;60035;52.122;5.406;2023-08-12T00:25:23;12.68;;;4.95;;
72156;SDS011;60035;52.122;5.406;2023-08-12T00:27:50;12.40;;;4.82;;
72156;SDS011;60035;52.122;5.406;2023-08-12T00:30:16;13.45;;;4.38;;
72156;SDS011;60035;52.122;5.406;2023-08-12T00:32:43;10.52;;;4.20;;
72156;SDS011;60035;52.122;5.406;2023-08-12T00:35:10;13.95;;;5.00;;
72156;SDS011;60035;52.122;5.406;2023-08-12T00:37:36;14.73;;;4.95;;
72156;SDS011;60035;52.122;5.406;2023-08-12T00:40:03;12.70;;;4.35;;
72156;SDS011;60035;52.122;5.406;2023-08-12T00:42:30;11.73;;;4.57;;
72156;SDS011;60035;52.122;5.406;2023-08-12T00:44:57;14.15;;;5.00;;
72156;SDS011;60035;52.122;5.406;2023-08-12T00:47:24;11.15;;;4.57;;
72156;SDS011;60035;52.122;5.406;2023-08-12T00:49:51;11.30;;;4.30;;
72156;SDS011;60035;52.122;5.406;2023-08-12T00:52:18;9.73;;;4.45;;
72156;SDS011;60035;52.122;5.406;2023-08-12T00:54:45;11.15;;;4.50;;
72156;SDS011;60035;52.122;5.406;2023-08-12T00:57:12;12.15;;;4.47;;
72156;SDS011;60035;52.122;5.406;2023-08-12T00:59:39;13.90;;;4.68;;
72156;SDS011;60035;52.122;5.406;2023-08-12T01:02:08;11.27;;;4.55;;
72156;SDS011;60035;52.122;5.406;2023-08-12T01:04:35;12.20;;;4.35;;
72156;SDS011;60035;52.122;5.406;2023-08-12T01:07:01;11.23;;;4.75;;
72156;SDS011;60035;52.122;5.406;2023-08-12T01:09:30;13.50;;;4.97;;
72156;SDS011;60035;52.122;5.406;2023-08-12T01:15:04;14.80;;;5.63;;
72156;SDS011;60035;52.122;5.406;2023-08-12T01:17:36;13.77;;;5.75;;
72156;SDS011;60035;52.122;5.406;2023-08-12T01:20:05;14.68;;;5.88;;
72156;SDS011;60035;52.122;5.406;2023-08-12T01:22:41;14.75;;;5.30;;
72156;SDS011;60035;52.122;5.406;2023-08-12T01:25:10;13.63;;;5.53;;
72156;SDS011;60035;52.122;5.406;2023-08-12T01:27:37;13.88;;;5.85;;
72156;SDS011;60035;52.122;5.406;2023-08-12T01:30:04;15.98;;;5.80;;
72156;SDS011;60035;52.122;5.406;2023-08-12T01:32:45;13.10;;;5.55;;
72156;SDS011;60035;52.122;5.406;2023-08-12T01:35:27;14.77;;;6.57;;
72156;SDS011;60035;52.122;5.406;2023-08-12T01:37:59;13.60;;;6.55;;
72156;SDS011;60035;52.122;5.406;2023-08-12T01:40:29;12.85;;;6.22;;
72156;SDS011;60035;52.122;5.406;2023-08-12T01:42:57;16.55;;;7.05;;
72156;SDS011;60035;52.122;5.406;2023-08-12T01:45:25;14.30;;;6.63;;
72156;SDS011;60035;52.122;5.406;2023-08-12T01:47:51;15.00;;;6.32;;
72156;SDS011;60035;52.122;5.406;2023-08-12T01:50:18;17.33;;;6.60;;
72156;SDS011;60035;52.122;5.406;2023-08-12T01:52:47;12.93;;;6.35;;
72156;SDS011;60035;52.122;5.406;2023-08-12T01:55:14;13.93;;;6.55;;
72156;SDS011;60035;52.122;5.406;2023-08-12T01:57:41;14.07;;;6.07;;
72156;SDS011;60035;52.122;5.406;2023-08-12T02:00:08;15.82;;;7.22;;
72156;SDS011;60035;52.122;5.406;2023-08-12T02:02:34;15.80;;;6.13;;
72156;SDS011;60035;52.122;5.406;2023-08-12T02:05:02;14.43;;;6.50;;
72156;SDS011;60035;52.122;5.406;2023-08-12T02:07:29;16.25;;;6.40;;
72156;SDS011;60035;52.122;5.406;2023-08-12T02:09:55;15.93;;;6.80;;
72156;SDS011;60035;52.122;5.406;2023-08-12T02:12:22;16.02;;;7.07;;
72156;SDS011;60035;52.122;5.406;2023-08-12T02:14:48;17.08;;;7.35;;
72156;SDS011;60035;52.122;5.406;2023-08-12T02:17:15;14.38;;;6.57;;
72156;SDS011;60035;52.122;5.406;2023-08-12T02:19:42;15.63;;;7.22;;
72156;SDS011;60035;52.122;5.406;2023-08-12T02:22:08;16.92;;;7.53;;
72156;SDS011;60035;52.122;5.406;2023-08-12T02:24:36;16.23;;;7.35;;
72156;SDS011;60035;52.122;5.406;2023-08-12T02:27:03;15.55;;;7.10;;
72156;SDS011;60035;52.122;5.406;2023-08-12T02:29:30;13.95;;;6.78;;
72156;SDS011;60035;52.122;5.406;2023-08-12T02:31:56;15.05;;;7.65;;
72156;SDS011;60035;52.122;5.406;2023-08-12T02:34:23;16.30;;;7.30;;
72156;SDS011;60035;52.122;5.406;2023-08-12T02:36:49;18.00;;;7.40;;
72156;SDS011;60035;52.122;5.406;2023-08-12T02:39:16;16.42;;;7.53;;
72156;SDS011;60035;52.122;5.406;2023-08-12T02:41:42;18.65;;;7.40;;
72156;SDS011;60035;52.122;5.406;2023-08-12T02:44:09;16.02;;;6.93;;
72156;SDS011;60035;52.122;5.406;2023-08-12T02:46:35;14.95;;;6.93;;
72156;SDS011;60035;52.122;5.406;2023-08-12T02:49:02;16.33;;;7.82;;
72156;SDS011;60035;52.122;5.406;2023-08-12T02:51:29;18.35;;;6.93;;
72156;SDS011;60035;52.122;5.406;2023-08-12T02:53:55;17.45;;;6.28;;
72156;SDS011;60035;52.122;5.406;2023-08-12T02:56:22;15.45;;;7.13;;
72156;SDS011;60035;52.122;5.406;2023-08-12T02:58:48;15.25;;;7.28;;
72156;SDS011;60035;52.122;5.406;2023-08-12T03:01:15;15.32;;;7.05;;
72156;SDS011;60035;52.122;5.406;2023-08-12T03:03:42;16.63;;;7.10;;
72156;SDS011;60035;52.122;5.406;2023-08-12T03:06:09;19.10;;;7.75;;
72156;SDS011;60035;52.122;5.406;2023-08-12T03:08:36;24.77;;;8.10;;
72156;SDS011;60035;52.122;5.406;2023-08-12T03:11:03;17.85;;;8.27;;
72156;SDS011;60035;52.122;5.406;2023-08-12T03:13:30;16.83;;;8.18;;
72156;SDS011;60035;52.122;5.406;2023-08-12T03:15:56;16.98;;;8.15;;
72156;SDS011;60035;52.122;5.406;2023-08-12T03:18:23;18.58;;;8.25;;
72156;SDS011;60035;52.122;5.406;2023-08-12T03:20:50;20.38;;;8.05;;
72156;SDS011;60035;52.122;5.406;2023-08-12T03:23:16;22.20;;;8.82;;
72156;SDS011;60035;52.122;5.406;2023-08-12T03:25:43;16.92;;;8.00;;
72156;SDS011;60035;52.122;5.406;2023-08-12T03:28:09;18.85;;;9.18;;
72156;SDS011;60035;52.122;5.406;2023-08-12T03:30:36;19.30;;;8.90;;
72156;SDS011;60035;52.122;5.406;2023-08-12T03:33:02;18.27;;;8.65;;
72156;SDS011;60035;52.122;5.406;2023-08-12T03:35:29;17.38;;;8.52;;
72156;SDS011;60035;52.122;5.406;2023-08-12T03:37:56;18.45;;;8.73;;
72156;SDS011;60035;52.122;5.406;2023-08-12T03:40:23;18.25;;;8.60;;
72156;SDS011;60035;52.122;5.406;2023-08-12T03:42:49;20.00;;;9.07;;
72156;SDS011;60035;52.122;5.406;2023-08-12T03:45:16;19.33;;;8.95;;
72156;SDS011;60035;52.122;5.406;2023-08-12T03:47:42;21.77;;;9.23;;
72156;SDS011;60035;52.122;5.406;2023-08-12T03:50:09;18.10;;;8.88;;
72156;SDS011;60035;52.122;5.406;2023-08-12T03:52:35;17.00;;;9.55;;
72156;SDS011;60035;52.122;5.406;2023-08-12T03:55:02;18.10;;;8.73;;
72156;SDS011;60035;52.122;5.406;2023-08-12T03:57:29;16.77;;;8.65;;
72156;SDS011;60035;52.122;5.406;2023-08-12T03:59:56;18.40;;;8.63;;
72156;SDS011;60035;52.122;5.406;2023-08-12T04:02:22;19.85;;;9.43;;
72156;SDS011;60035;52.122;5.406;2023-08-12T04:04:49;18.33;;;8.48;;
72156;SDS011;60035;52.122;5.406;2023-08-12T04:07:15;19.23;;;8.88;;
72156;SDS011;60035;52.122;5.406;2023-08-12T04:09:42;18.75;;;9.27;;
72156;SDS011;60035;52.122;5.406;2023-08-12T04:12:08;18.23;;;9.15;;
72156;SDS011;60035;52.122;5.406;2023-08-12T04:14:35;18.92;;;9.73;;
72156;SDS011;60035;52.122;5.406;2023-08-12T04:17:01;20.75;;;9.80;;
72156;SDS011;60035;52.122;5.406;2023-08-12T04:19:28;21.83;;;10.80;;
72156;SDS011;60035;52.122;5.406;2023-08-12T04:21:55;18.75;;;9.65;;
72156;SDS011;60035;52.122;5.406;2023-08-12T04:24:21;21.20;;;10.75;;
72156;SDS011;60035;52.122;5.406;2023-08-12T04:26:48;22.90;;;11.35;;
72156;SDS011;60035;52.122;5.406;2023-08-12T04:29:14;19.90;;;10.32;;
72156;SDS011;60035;52.122;5.406;2023-08-12T04:31:41;21.33;;;11.40;;
72156;SDS011;60035;52.122;5.406;2023-08-12T04:34:07;22.55;;;11.40;;
72156;SDS011;60035;52.122;5.406;2023-08-12T04:36:34;22.63;;;11.65;;
72156;SDS011;60035;52.122;5.406;2023-08-12T04:39:02;22.73;;;11.32;;
72156;SDS011;60035;52.122;5.406;2023-08-12T04:41:28;25.58;;;12.75;;
72156;SDS011;60035;52.122;5.406;2023-08-12T04:43:56;24.00;;;11.48;;
72156;SDS011;60035;52.122;5.406;2023-08-12T04:46:22;26.48;;;11.50;;
72156;SDS011;60035;52.122;5.406;2023-08-12T04:48:49;24.05;;;11.50;;
72156;SDS011;60035;52.122;5.406;2023-08-12T04:51:16;23.02;;;12.43;;
72156;SDS011;60035;52.122;5.406;2023-08-12T04:53:42;22.33;;;11.77;;
72156;SDS011;60035;52.122;5.406;2023-08-12T04:56:09;22.77;;;11.52;;
72156;SDS011;60035;52.122;5.406;2023-08-12T04:58:35;22.92;;;11.65;;
72156;SDS011;60035;52.122;5.406;2023-08-12T05:01:02;28.08;;;11.32;;
72156;SDS011;60035;52.122;5.406;2023-08-12T05:03:29;22.10;;;11.10;;
72156;SDS011;60035;52.122;5.406;2023-08-12T05:05:55;21.33;;;10.68;;
72156;SDS011;60035;52.122;5.406;2023-08-12T05:08:22;23.15;;;10.75;;
72156;SDS011;60035;52.122;5.406;2023-08-12T05:10:49;21.77;;;10.23;;
72156;SDS011;60035;52.122;5.406;2023-08-12T05:13:16;20.63;;;9.75;;
72156;SDS011;60035;52.122;5.406;2023-08-12T05:15:46;18.85;;;9.57;;
72156;SDS011;60035;52.122;5.406;2023-08-12T05:18:14;20.35;;;10.77;;
72156;SDS011;60035;52.122;5.406;2023-08-12T05:20:41;23.67;;;10.63;;
72156;SDS011;60035;52.122;5.406;2023-08-12T05:23:12;20.55;;;10.32;;
72156;SDS011;60035;52.122;5.406;2023-08-12T05:25:39;16.75;;;9.80;;
72156;SDS011;60035;52.122;5.406;2023-08-12T05:28:06;19.52;;;9.32;;
72156;SDS011;60035;52.122;5.406;2023-08-12T05:30:34;18.63;;;9.25;;
72156;SDS011;60035;52.122;5.406;2023-08-12T05:33:00;18.05;;;9.40;;
72156;SDS011;60035;52.122;5.406;2023-08-12T05:35:27;19.02;;;9.35;;
72156;SDS011;60035;52.122;5.406;2023-08-12T05:37:54;19.75;;;9.48;;
72156;SDS011;60035;52.122;5.406;2023-08-12T05:40:21;18.08;;;8.68;;
72156;SDS011;60035;52.122;5.406;2023-08-12T05:42:47;18.27;;;8.88;;
72156;SDS011;60035;52.122;5.406;2023-08-12T05:45:14;18.48;;;9.30;;
72156;SDS011;60035;52.122;5.406;2023-08-12T05:47:41;24.20;;;10.35;;
72156;SDS011;60035;52.122;5.406;2023-08-12T05:50:08;21.10;;;9.73;;
72156;SDS011;60035;52.122;5.406;2023-08-12T05:52:34;16.98;;;9.00;;
72156;SDS011;60035;52.122;5.406;2023-08-12T05:55:01;18.05;;;9.35;;
72156;SDS011;60035;52.122;5.406;2023-08-12T05:57:28;19.65;;;9.55;;
72156;SDS011;60035;52.122;5.406;2023-08-12T05:59:55;16.83;;;9.23;;
72156;SDS011;60035;52.122;5.406;2023-08-12T06:02:21;20.40;;;9.32;;
72156;SDS011;60035;52.122;5.406;2023-08-12T06:04:48;19.58;;;9.80;;
72156;SDS011;60035;52.122;5.406;2023-08-12T06:07:15;19.92;;;8.73;;
72156;SDS011;60035;52.122;5.406;2023-08-12T06:09:41;19.10;;;9.93;;
72156;SDS011;60035;52.122;5.406;2023-08-12T06:12:08;20.10;;;10.95;;
72156;SDS011;60035;52.122;5.406;2023-08-12T06:14:37;16.65;;;8.55;;
72156;SDS011;60035;52.122;5.406;2023-08-12T06:17:04;19.23;;;8.50;;
72156;SDS011;60035;52.122;5.406;2023-08-12T06:19:31;17.60;;;8.85;;
72156;SDS011;60035;52.122;5.406;2023-08-12T06:21:58;16.85;;;8.68;;
72156;SDS011;60035;52.122;5.406;2023-08-12T06:24:25;18.20;;;7.88;;
72156;SDS011;60035;52.122;5.406;2023-08-12T06:26:52;14.30;;;7.55;;
72156;SDS011;60035;52.122;5.406;2023-08-12T06:29:19;18.95;;;7.85;;
72156;SDS011;60035;52.122;5.406;2023-08-12T06:31:46;18.23;;;7.45;;
72156;SDS011;60035;52.122;5.406;2023-08-12T06:34:12;14.85;;;7.53;;
72156;SDS011;60035;52.122;5.406;2023-08-12T06:36:39;15.23;;;6.43;;
72156;SDS011;60035;52.122;5.406;2023-08-12T06:39:06;12.65;;;6.32;;
72156;SDS011;60035;52.122;5.406;2023-08-12T06:41:33;12.35;;;6.13;;
72156;SDS011;60035;52.122;5.406;2023-08-12T06:44:00;12.88;;;5.75;;
72156;SDS011;60035;52.122;5.406;2023-08-12T06:46:27;13.00;;;4.82;;
72156;SDS011;60035;52.122;5.406;2023-08-12T06:48:54;13.25;;;5.07;;
72156;SDS011;60035;52.122;5.406;2023-08-12T06:51:21;11.63;;;4.32;;
72156;SDS011;60035;52.122;5.406;2023-08-12T06:53:47;10.68;;;4.55;;
72156;SDS011;60035;52.122;5.406;2023-08-12T06:56:14;9.38;;;4.10;;
72156;SDS011;60035;52.122;5.406;2023-08-12T06:58:41;10.07;;;4.28;;
72156;SDS011;60035;52.122;5.406;2023-08-12T07:01:08;9.95;;;4.15;;
72156;SDS011;60035;52.122;5.406;2023-08-12T07:03:34;9.35;;;3.97;;
72156;SDS011;60035;52.122;5.406;2023-08-12T07:06:01;8.43;;;3.70;;
72156;SDS011;60035;52.122;5.406;2023-08-12T07:08:27;9.40;;;4.05;;
72156;SDS011;60035;52.122;5.406;2023-08-12T07:10:54;9.25;;;3.92;;
72156;SDS011;60035;52.122;5.406;2023-08-12T07:13:20;8.45;;;3.88;;
72156;SDS011;60035;52.122;5.406;2023-08-12T07:15:47;9.02;;;3.65;;
72156;SDS011;60035;52.122;5.406;2023-08-12T07:18:14;8.32;;;4.07;;
72156;SDS011;60035;52.122;5.406;2023-08-12T07:20:40;8.95;;;3.60;;
72156;SDS011;60035;52.122;5.406;2023-08-12T07:23:07;6.95;;;3.17;;
72156;SDS011;60035;52.122;5.406;2023-08-12T07:25:33;7.45;;;3.42;;
72156;SDS011;60035;52.122;5.406;2023-08-12T07:28:00;8.45;;;3.42;;
72156;SDS011;60035;52.122;5.406;2023-08-12T07:30:26;8.13;;;3.47;;
72156;SDS011;60035;52.122;5.406;2023-08-12T07:32:53;7.22;;;3.00;;
72156;SDS011;60035;52.122;5.406;2023-08-12T07:35:20;8.27;;;3.40;;
72156;SDS011;60035;52.122;5.406;2023-08-12T07:37:46;7.65;;;3.50;;
72156;SDS011;60035;52.122;5.406;2023-08-12T07:40:14;7.82;;;4.40;;
72156;SDS011;60035;52.122;5.406;2023-08-12T07:42:41;6.97;;;3.30;;
72156;SDS011;60035;52.122;5.406;2023-08-12T07:45:07;8.00;;;3.63;;
72156;SDS011;60035;52.122;5.406;2023-08-12T07:47:35;7.15;;;3.20;;
72156;SDS011;60035;52.122;5.406;2023-08-12T07:50:05;10.80;;;3.85;;
72156;SDS011;60035;52.122;5.406;2023-08-12T07:52:32;7.18;;;3.55;;
72156;SDS011;60035;52.122;5.406;2023-08-12T07:54:58;8.27;;;3.33;;
72156;SDS011;60035;52.122;5.406;2023-08-12T07:57:25;8.25;;;3.10;;
72156;SDS011;60035;52.122;5.406;2023-08-12T07:59:52;6.90;;;3.25;;
72156;SDS011;60035;52.122;5.406;2023-08-12T08:02:18;6.60;;;3.30;;
72156;SDS011;60035;52.122;5.406;2023-08-12T08:04:45;7.20;;;3.28;;
72156;SDS011;60035;52.122;5.406;2023-08-12T08:07:15;6.55;;;3.60;;
72156;SDS011;60035;52.122;5.406;2023-08-12T08:09:43;6.70;;;3.08;;
72156;SDS011;60035;52.122;5.406;2023-08-12T08:12:10;6.93;;;3.20;;
72156;SDS011;60035;52.122;5.406;2023-08-12T08:14:37;5.22;;;2.47;;
72156;SDS011;60035;52.122;5.406;2023-08-12T08:17:03;6.15;;;2.58;;
72156;SDS011;60035;52.122;5.406;2023-08-12T08:19:30;5.82;;;2.55;;
72156;SDS011;60035;52.122;5.406;2023-08-12T08:21:57;5.85;;;2.30;;
72156;SDS011;60035;52.122;5.406;2023-08-12T08:24:23;5.97;;;2.25;;
72156;SDS011;60035;52.122;5.406;2023-08-12T08:26:50;5.22;;;2.35;;
72156;SDS011;60035;52.122;5.406;2023-08-12T08:29:17;5.15;;;2.38;;
72156;SDS011;60035;52.122;5.406;2023-08-12T08:31:43;5.03;;;2.72;;
72156;SDS011;60035;52.122;5.406;2023-08-12T08:34:10;5.03;;;2.03;;
72156;SDS011;60035;52.122;5.406;2023-08-12T08:36:36;4.70;;;2.15;;
72156;SDS011;60035;52.122;5.406;2023-08-12T08:39:03;4.35;;;1.95;;
72156;SDS011;60035;52.122;5.406;2023-08-12T08:41:30;5.20;;;2.03;;
72156;SDS011;60035;52.122;5.406;2023-08-12T08:44:02;4.13;;;2.10;;
72156;SDS011;60035;52.122;5.406;2023-08-12T08:46:31;5.68;;;2.00;;
72156;SDS011;60035;52.122;5.406;2023-08-12T08:49:01;3.53;;;1.70;;
72156;SDS011;60035;52.122;5.406;2023-08-12T08:54:02;3.80;;;1.88;;
72156;SDS011;60035;52.122;5.406;2023-08-12T08:56:33;2.85;;;1.20;;
72156;SDS011;60035;52.122;5.406;2023-08-12T08:59:05;2.95;;;1.20;;
72156;SDS011;60035;52.122;5.406;2023-08-12T09:01:31;2.83;;;1.13;;
72156;SDS011;60035;52.122;5.406;2023-08-12T09:03:58;2.42;;;1.33;;
72156;SDS011;60035;52.122;5.406;2023-08-12T09:06:25;5.72;;;1.38;;
72156;SDS011;60035;52.122;5.406;2023-08-12T09:08:54;3.78;;;1.10;;
72156;SDS011;60035;52.122;5.406;2023-08-12T09:11:21;3.72;;;1.05;;
72156;SDS011;60035;52.122;5.406;2023-08-12T09:13:47;4.22;;;1.17;;
72156;SDS011;60035;52.122;5.406;2023-08-12T09:16:15;2.92;;;1.00;;
72156;SDS011;60035;52.122;5.406;2023-08-12T09:18:42;3.67;;;0.90;;
72156;SDS011;60035;52.122;5.406;2023-08-12T09:21:10;4.03;;;1.00;;
72156;SDS011;60035;52.122;5.406;2023-08-12T09:23:38;4.70;;;1.27;;
72156;SDS011;60035;52.122;5.406;2023-08-12T09:26:18;4.53;;;1.17;;
72156;SDS011;60035;52.122;5.406;2023-08-12T09:28:47;4.63;;;0.82;;
72156;SDS011;60035;52.122;5.406;2023-08-12T09:31:24;6.53;;;1.08;;
72156;SDS011;60035;52.122;5.406;2023-08-12T09:33:59;4.00;;;1.00;;
72156;SDS011;60035;52.122;5.406;2023-08-12T09:36:29;4.65;;;1.02;;
72156;SDS011;60035;52.122;5.406;2023-08-12T09:38:57;4.13;;;1.10;;
72156;SDS011;60035;52.122;5.406;2023-08-12T09:41:26;3.45;;;0.98;;
72156;SDS011;60035;52.122;5.406;2023-08-12T09:43:55;6.10;;;1.15;;
72156;SDS011;60035;52.122;5.406;2023-08-12T09:46:23;5.43;;;1.23;;
72156;SDS011;60035;52.122;5.406;2023-08-12T09:48:51;5.10;;;1.15;;
72156;SDS011;60035;52.122;5.406;2023-08-12T09:51:19;5.72;;;1.20;;
72156;SDS011;60035;52.122;5.406;2023-08-12T09:53:48;4.07;;;1.20;;
72156;SDS011;60035;52.122;5.406;2023-08-12T09:56:17;5.03;;;1.02;;
72156;SDS011;60035;52.122;5.406;2023-08-12T09:58:47;5.55;;;1.10;;
72156;SDS011;60035;52.122;5.406;2023-08-12T10:01:18;6.90;;;1.27;;
72156;SDS011;60035;52.122;5.406;2023-08-12T10:03:49;6.35;;;1.48;;
72156;SDS011;60035;52.122;5.406;2023-08-12T10:06:17;5.28;;;1.33;;
72156;SDS011;60035;52.122;5.406;2023-08-12T10:08:47;5.70;;;1.42;;
72156;SDS011;60035;52.122;5.406;2023-08-12T10:11:15;6.45;;;1.45;;
72156;SDS011;60035;52.122;5.406;2023-08-12T10:13:42;7.88;;;1.40;;
72156;SDS011;60035;52.122;5.406;2023-08-12T10:16:09;8.10;;;1.30;;
72156;SDS011;60035;52.122;5.406;2023-08-12T10:18:40;5.60;;;1.20;;
72156;SDS011;60035;52.122;5.406;2023-08-12T10:21:09;6.75;;;1.17;;
72156;SDS011;60035;52.122;5.406;2023-08-12T10:23:40;7.13;;;1.15;;
72156;SDS011;60035;52.122;5.406;2023-08-12T10:26:11;7.00;;;1.30;;
72156;SDS011;60035;52.122;5.406;2023-08-12T10:28:39;5.93;;;1.02;;
72156;SDS011;60035;52.122;5.406;2023-08-12T10:31:06;5.60;;;1.15;;
72156;SDS011;60035;52.122;5.406;2023-08-12T10:33:40;5.82;;;1.02;;
72156;SDS011;60035;52.122;5.406;2023-08-12T10:36:07;4.15;;;0.68;;
72156;SDS011;60035;52.122;5.406;2023-08-12T10:38:37;5.30;;;1.25;;
72156;SDS011;60035;52.122;5.406;2023-08-12T10:41:23;5.78;;;1.30;;
72156;SDS011;60035;52.122;5.406;2023-08-12T10:44:09;3.92;;;1.02;;
72156;SDS011;60035;52.122;5.406;2023-08-12T10:46:35;5.22;;;1.13;;
72156;SDS011;60035;52.122;5.406;2023-08-12T10:49:10;8.05;;;1.90;;
72156;SDS011;60035;52.122;5.406;2023-08-12T10:51:44;5.65;;;1.13;;
72156;SDS011;60035;52.122;5.406;2023-08-12T10:57:05;5.68;;;1.45;;
72156;SDS011;60035;52.122;5.406;2023-08-12T10:59:56;7.97;;;1.45;;
72156;SDS011;60035;52.122;5.406;2023-08-12T11:02:27;6.30;;;1.60;;
72156;SDS011;60035;52.122;5.406;2023-08-12T11:04:56;8.38;;;2.13;;
72156;SDS011;60035;52.122;5.406;2023-08-12T11:10:19;6.57;;;1.38;;
72156;SDS011;60035;52.122;5.406;2023-08-12T11:12:53;7.25;;;1.45;;
72156;SDS011;60035;52.122;5.406;2023-08-12T11:18:12;6.82;;;1.58;;
72156;SDS011;60035;52.122;5.406;2023-08-12T11:20:40;6.25;;;1.30;;
72156;SDS011;60035;52.122;5.406;2023-08-12T11:23:07;6.13;;;1.45;;
72156;SDS011;60035;52.122;5.406;2023-08-12T11:25:36;6.57;;;1.52;;
72156;SDS011;60035;52.122;5.406;2023-08-12T11:28:04;6.20;;;1.40;;
72156;SDS011;60035;52.122;5.406;2023-08-12T11:30:31;5.15;;;1.40;;
72156;SDS011;60035;52.122;5.406;2023-08-12T11:32:58;7.88;;;1.45;;
72156;SDS011;60035;52.122;5.406;2023-08-12T11:35:26;6.88;;;1.10;;
72156;SDS011;60035;52.122;5.406;2023-08-12T11:37:55;7.15;;;1.40;;
72156;SDS011;60035;52.122;5.406;2023-08-12T11:40:23;5.95;;;1.15;;
72156;SDS011;60035;52.122;5.406;2023-08-12T11:42:51;7.38;;;1.40;;
72156;SDS011;60035;52.122;5.406;2023-08-12T11:45:20;7.72;;;1.33;;
72156;SDS011;60035;52.122;5.406;2023-08-12T11:47:48;6.03;;;1.00;;
72156;SDS011;60035;52.122;5.406;2023-08-12T11:50:24;7.03;;;1.33;;
72156;SDS011;60035;52.122;5.406;2023-08-12T11:52:52;7.18;;;1.50;;
72156;SDS011;60035;52.122;5.406;2023-08-12T11:55:20;6.53;;;1.30;;
72156;SDS011;60035;52.122;5.406;2023-08-12T11:57:48;7.88;;;1.38;;
72156;SDS011;60035;52.122;5.406;2023-08-12T12:00:18;6.53;;;1.30;;
72156;SDS011;60035;52.122;5.406;2023-08-12T12:05:15;5.03;;;1.02;;
72156;SDS011;60035;52.122;5.406;2023-08-12T12:07:44;5.75;;;1.45;;
72156;SDS011;60035;52.122;5.406;2023-08-12T12:10:16;8.52;;;1.40;;
72156;SDS011;60035;52.122;5.406;2023-08-12T12:12:45;7.00;;;1.30;;
72156;SDS011;60035;52.122;5.406;2023-08-12T12:15:12;6.57;;;1.17;;
72156;SDS011;60035;52.122;5.406;2023-08-12T12:17:40;7.68;;;1.50;;
72156;SDS011;60035;52.122;5.406;2023-08-12T12:20:07;7.05;;;1.23;;
72156;SDS011;60035;52.122;5.406;2023-08-12T12:22:36;4.95;;;1.20;;
72156;SDS011;60035;52.122;5.406;2023-08-12T12:25:07;7.05;;;1.17;;
72156;SDS011;60035;52.122;5.406;2023-08-12T12:27:36;7.63;;;0.88;;
72156;SDS011;60035;52.122;5.406;2023-08-12T12:30:03;6.18;;;1.33;;
72156;SDS011;60035;52.122;5.406;2023-08-12T12:32:31;9.43;;;1.20;;
72156;SDS011;60035;52.122;5.406;2023-08-12T12:34:58;5.15;;;1.17;;
72156;SDS011;60035;52.122;5.406;2023-08-12T12:37:24;5.93;;;1.00;;
72156;SDS011;60035;52.122;5.406;2023-08-12T12:39:52;7.70;;;1.17;;
72156;SDS011;60035;52.122;5.406;2023-08-12T12:42:19;5.68;;;1.08;;
72156;SDS011;60035;52.122;5.406;2023-08-12T12:44:45;6.32;;;1.20;;
72156;SDS011;60035;52.122;5.406;2023-08-12T12:47:14;7.22;;;1.02;;
72156;SDS011;60035;52.122;5.406;2023-08-12T12:49:40;7.15;;;1.02;;
72156;SDS011;60035;52.122;5.406;2023-08-12T12:52:10;4.60;;;0.90;;
72156;SDS011;60035;52.122;5.406;2023-08-12T12:54:36;6.07;;;1.38;;
72156;SDS011;60035;52.122;5.406;2023-08-12T12:57:03;5.93;;;1.13;;
72156;SDS011;60035;52.122;5.406;2023-08-12T12:59:30;6.60;;;1.10;;
72156;SDS011;60035;52.122;5.406;2023-08-12T13:01:57;7.10;;;1.25;;
72156;SDS011;60035;52.122;5.406;2023-08-12T13:04:24;6.10;;;0.98;;
72156;SDS011;60035;52.122;5.406;2023-08-12T13:06:50;6.18;;;1.17;;
72156;SDS011;60035;52.122;5.406;2023-08-12T13:09:17;6.18;;;1.38;;
72156;SDS011;60035;52.122;5.406;2023-08-12T13:11:44;6.32;;;1.27;;
72156;SDS011;60035;52.122;5.406;2023-08-12T13:14:10;5.60;;;1.27;;
72156;SDS011;60035;52.122;5.406;2023-08-12T13:16:37;5.78;;;1.08;;
72156;SDS011;60035;52.122;5.406;2023-08-12T13:19:04;8.38;;;1.30;;
72156;SDS011;60035;52.122;5.406;2023-08-12T13:21:30;4.72;;;1.10;;
72156;SDS011;60035;52.122;5.406;2023-08-12T13:23:58;8.32;;;1.50;;
72156;SDS011;60035;52.122;5.406;2023-08-12T13:26:25;7.07;;;1.33;;
72156;SDS011;60035;52.122;5.406;2023-08-12T13:28:52;7.22;;;1.25;;
72156;SDS011;60035;52.122;5.406;2023-08-12T13:31:19;7.22;;;1.20;;
72156;SDS011;60035;52.122;5.406;2023-08-12T13:33:46;5.97;;;1.30;;
72156;SDS011;60035;52.122;5.406;2023-08-12T13:36:12;7.68;;;1.63;;
72156;SDS011;60035;52.122;5.406;2023-08-12T13:38:39;8.15;;;1.33;;
72156;SDS011;60035;52.122;5.406;2023-08-12T13:41:05;5.43;;;1.13;;
72156;SDS011;60035;52.122;5.406;2023-08-12T13:43:32;5.07;;;0.98;;
72156;SDS011;60035;52.122;5.406;2023-08-12T13:45:59;10.90;;;1.98;;
72156;SDS011;60035;52.122;5.406;2023-08-12T13:48:26;7.78;;;1.20;;
72156;SDS011;60035;52.122;5.406;2023-08-12T13:50:53;9.65;;;1.52;;
72156;SDS011;60035;52.122;5.406;2023-08-12T13:53:22;5.45;;;0.98;;
72156;SDS011;60035;52.122;5.406;2023-08-12T13:55:50;7.75;;;1.23;;
72156;SDS011;60035;52.122;5.406;2023-08-12T13:58:16;6.93;;;1.38;;
72156;SDS011;60035;52.122;5.406;2023-08-12T14:00:43;7.07;;;1.42;;
72156;SDS011;60035;52.122;5.406;2023-08-12T14:03:09;6.45;;;1.20;;
72156;SDS011;60035;52.122;5.406;2023-08-12T14:05:36;5.90;;;1.13;;
72156;SDS011;60035;52.122;5.406;2023-08-12T14:08:03;7.53;;;1.25;;
72156;SDS011;60035;52.122;5.406;2023-08-12T14:10:29;6.97;;;1.52;;
72156;SDS011;60035;52.122;5.406;2023-08-12T14:12:56;6.00;;;1.67;;
72156;SDS011;60035;52.122;5.406;2023-08-12T14:15:22;6.68;;;1.40;;
72156;SDS011;60035;52.122;5.406;2023-08-12T14:17:49;8.55;;;1.33;;
72156;SDS011;60035;52.122;5.406;2023-08-12T14:20:16;5.78;;;1.23;;
72156;SDS011;60035;52.122;5.406;2023-08-12T14:22:42;5.72;;;1.23;;
72156;SDS011;60035;52.122;5.406;2023-08-12T14:25:12;8.23;;;1.42;;
72156;SDS011;60035;52.122;5.406;2023-08-12T14:27:39;3.80;;;0.82;;
72156;SDS011;60035;52.122;5.406;2023-08-12T14:30:06;7.88;;;1.10;;
72156;SDS011;60035;52.122;5.406;2023-08-12T14:32:33;6.43;;;1.48;;
72156;SDS011;60035;52.122;5.406;2023-08-12T14:34:59;6.38;;;1.10;;
72156;SDS011;60035;52.122;5.406;2023-08-12T14:37:26;7.97;;;1.67;;
72156;SDS011;60035;52.122;5.406;2023-08-12T14:39:54;6.32;;;1.40;;
72156;SDS011;60035;52.122;5.406;2023-08-12T14:44:50;6.45;;;1.33;;
72156;SDS011;60035;52.122;5.406;2023-08-12T14:47:17;6.15;;;1.20;;
72156;SDS011;60035;52.122;5.406;2023-08-12T14:49:45;9.35;;;1.60;;
72156;SDS011;60035;52.122;5.406;2023-08-12T14:52:16;9.40;;;1.60;;
72156;SDS011;60035;52.122;5.406;2023-08-12T14:54:44;8.15;;;1.40;;
72156;SDS011;60035;52.122;5.406;2023-08-12T14:57:11;9.52;;;1.67;;
72156;SDS011;60035;52.122;5.406;2023-08-12T14:59:38;8.27;;;2.15;;
72156;SDS011;60035;52.122;5.406;2023-08-12T15:02:06;7.20;;;1.63;;